Terminal Aerodrome Forecast
Issued by NWS Portland, ME

Home | Current Version | Previous Version | Text Only | Print | Product List | Glossary On
Versions: 1 2 3 4 5 6 7 8 9 10 11 12 13 14 15 16 17 18 19
462
FTUS41 KGYX 021946 AAA
TAFCON
TAF AMD
KCON 021946Z 0220/0318 35005KT 2SM -RA BR OVC006
     FM030300 32004KT 4SM BR OVC015
      TEMPO 0303/0307 3/4SM BR BKN007
     FM031200 VRB03KT P6SM OVC035=

USA.gov is the U.S. government's official web portal to all federal, state and local government web resources and services.